createdAt,value
2019-05-05T00:01:39.133Z,6.80
2019-05-05T00:07:36.013Z,6.90
2019-05-05T00:13:35.162Z,6.80
2019-05-05T00:19:10.228Z,6.70
2019-05-05T00:25:07.585Z,6.70
2019-05-05T00:31:04.875Z,6.70
2019-05-05T00:37:04.713Z,6.70
2019-05-05T00:43:01.182Z,6.70
2019-05-05T00:49:00.433Z,6.70
2019-05-05T00:54:57.621Z,6.60
2019-05-05T01:00:47.069Z,6.70
2019-05-05T01:06:45.669Z,6.60
2019-05-05T01:12:42.531Z,6.40
2019-05-05T01:18:39.723Z,6.40
2019-05-05T01:24:39.661Z,6.50
2019-05-05T01:30:38.458Z,6.60
2019-05-05T01:36:49.714Z,6.60
2019-05-05T01:42:59.735Z,6.50
2019-05-05T01:48:56.940Z,6.60
2019-05-05T01:54:54.950Z,6.60
2019-05-05T02:00:40.892Z,6.70
2019-05-05T02:06:38.489Z,6.80
2019-05-05T02:12:36.542Z,6.80
2019-05-05T02:18:34.540Z,6.70
2019-05-05T02:24:32.492Z,6.70
2019-05-05T02:30:35.904Z,6.70
2019-05-05T02:36:37.450Z,6.80
2019-05-05T02:42:36.030Z,6.80
2019-05-05T02:48:45.633Z,6.80
2019-05-05T02:54:44.226Z,6.90
2019-05-05T03:00:25.836Z,6.90
2019-05-05T03:06:35.427Z,6.90
2019-05-05T03:12:46.367Z,7.00
2019-05-05T03:18:56.026Z,7.00
2019-05-05T03:25:06.330Z,7.10
2019-05-05T03:31:16.396Z,7.00
2019-05-05T03:37:14.742Z,7.00
2019-05-05T03:43:25.755Z,6.90
2019-05-05T03:49:24.338Z,7.00
2019-05-05T03:55:25.062Z,7.00
2019-05-05T04:05:08.800Z,7.20
2019-05-05T04:10:54.660Z,7.20
2019-05-05T04:17:05.134Z,7.20
2019-05-05T04:22:38.103Z,7.20
2019-05-05T04:28:35.519Z,7.20
2019-05-05T04:34:34.644Z,7.20
2019-05-05T04:40:31.816Z,7.20
2019-05-05T04:46:29.347Z,7.30
2019-05-05T04:52:30.632Z,7.20
2019-05-05T04:54:59.491Z,7.10
2019-05-05T04:57:28.015Z,7.10
2019-05-05T04:59:56.657Z,7.20
2019-05-05T05:02:29.752Z,7.10
2019-05-05T05:05:00.050Z,7.10
2019-05-05T05:07:28.607Z,7.10
2019-05-05T05:10:00.130Z,7.10
2019-05-05T05:12:28.859Z,7.00
2019-05-05T05:14:57.513Z,7.00
2019-05-05T05:17:27.659Z,7.00
2019-05-05T05:19:57.161Z,7.00
2019-05-05T05:22:25.825Z,7.00
2019-05-05T05:24:54.465Z,7.00
2019-05-05T05:27:24.510Z,7.00
2019-05-05T05:29:56.130Z,7.00
2019-05-05T05:32:24.845Z,7.00
2019-05-05T05:34:54.304Z,7.00
2019-05-05T05:37:24.039Z,7.00
2019-05-05T05:39:54.551Z,6.90
2019-05-05T05:42:24.170Z,6.90
2019-05-05T05:45:11.161Z,6.90
2019-05-05T05:47:56.885Z,6.90
2019-05-05T05:50:27.185Z,7.00
2019-05-05T05:52:55.815Z,7.00
2019-05-05T05:55:24.442Z,7.10
2019-05-05T05:57:54.157Z,7.10
2019-05-05T06:00:23.770Z,7.20
2019-05-05T06:02:54.503Z,7.30
2019-05-05T06:05:26.228Z,7.30
2019-05-05T06:07:54.778Z,7.40
2019-05-05T06:10:27.190Z,7.40
2019-05-05T06:12:54.854Z,7.40
2019-05-05T06:15:24.432Z,7.50
2019-05-05T06:17:53.942Z,7.50
2019-05-05T06:20:23.912Z,7.50
2019-05-05T06:22:53.566Z,7.50
2019-05-05T06:25:26.266Z,7.40
2019-05-05T06:27:54.009Z,7.40
2019-05-05T06:30:24.368Z,7.40
2019-05-05T06:32:54.450Z,7.30
2019-05-05T06:35:24.457Z,7.40
2019-05-05T06:37:54.236Z,7.40
2019-05-05T06:40:44.281Z,7.40
2019-05-05T06:43:19.752Z,7.40
2019-05-05T06:46:14.644Z,7.40
2019-05-05T06:48:43.894Z,7.40
2019-05-05T06:51:14.080Z,7.50
2019-05-05T06:53:43.536Z,7.50
2019-05-05T06:56:14.396Z,7.50
2019-05-05T06:58:44.254Z,7.50
2019-05-05T07:01:14.272Z,7.50
2019-05-05T07:03:46.113Z,7.50
2019-05-05T07:06:14.780Z,7.60
2019-05-05T07:08:44.825Z,7.60
2019-05-05T07:11:14.491Z,7.60
2019-05-05T07:13:44.296Z,7.50
2019-05-05T07:16:14.936Z,7.50
2019-05-05T07:18:44.552Z,7.50
2019-05-05T07:21:14.205Z,7.50
2019-05-05T07:23:44.589Z,7.50
2019-05-05T07:26:14.378Z,7.60
2019-05-05T07:28:44.838Z,7.60
2019-05-05T07:31:14.294Z,7.50
2019-05-05T07:33:43.828Z,7.50
2019-05-05T07:36:16.852Z,7.50
2019-05-05T07:38:48.357Z,7.50
2019-05-05T07:41:16.857Z,7.40
2019-05-05T07:43:45.348Z,7.40
2019-05-05T07:46:13.802Z,7.40
2019-05-05T07:48:44.508Z,7.40
2019-05-05T07:54:55.097Z,7.60
2019-05-05T08:01:04.796Z,7.70
2019-05-05T08:10:17.144Z,7.50
2019-05-05T08:15:56.880Z,7.60
2019-05-05T08:21:43.755Z,7.60
2019-05-05T08:27:48.574Z,7.60
2019-05-05T08:33:45.825Z,7.80
2019-05-05T08:39:55.326Z,7.80
2019-05-05T08:45:52.812Z,7.30
2019-05-05T08:51:50.501Z,7.10
2019-05-05T08:57:48.692Z,7.20
2019-05-05T09:03:58.198Z,6.90
2019-05-05T09:09:55.369Z,7.00
2019-05-05T09:15:54.245Z,7.20
2019-05-05T09:22:06.680Z,7.40
2019-05-05T09:28:16.493Z,7.30
2019-05-05T09:34:14.621Z,7.30
2019-05-05T09:40:13.887Z,7.60
2019-05-05T09:46:10.838Z,7.70
2019-05-05T09:52:07.903Z,7.90
2019-05-05T09:58:04.844Z,8.10
2019-05-05T10:04:09.706Z,7.90
2019-05-05T10:09:43.781Z,8.00
2019-05-05T10:15:28.194Z,8.10
2019-05-05T10:21:25.285Z,8.10
2019-05-05T10:26:58.839Z,8.70
2019-05-05T10:32:55.659Z,9.10
2019-05-05T10:39:08.278Z,9.00
2019-05-05T10:45:06.813Z,8.90
2019-05-05T10:51:04.341Z,9.00
2019-05-05T10:57:04.191Z,9.00
2019-05-05T11:03:03.643Z,9.50
2019-05-05T11:09:01.318Z,9.70
2019-05-05T11:14:46.468Z,9.80
2019-05-05T11:20:44.788Z,10.00
2019-05-05T11:26:42.103Z,10.40
2019-05-05T11:32:57.284Z,11.00
2019-05-05T11:38:57.425Z,11.90
2019-05-05T11:44:54.662Z,11.20
2019-05-05T11:50:54.044Z,10.90
2019-05-05T11:56:54.798Z,10.70
2019-05-05T12:02:55.245Z,10.70
2019-05-05T12:08:52.078Z,11.00
2019-05-05T12:11:20.569Z,11.60
2019-05-05T12:16:43.835Z,12.20
2019-05-05T12:22:53.891Z,12.60
2019-05-05T12:28:44.033Z,11.80
2019-05-05T12:34:53.907Z,11.40
2019-05-05T12:40:53.351Z,12.50
2019-05-05T12:47:10.479Z,13.20
2019-05-05T12:53:21.157Z,13.00
2019-05-05T12:59:30.603Z,12.30
2019-05-05T13:05:39.749Z,11.90
2019-05-05T13:15:18.404Z,11.90
2019-05-05T13:21:17.398Z,12.60
2019-05-05T13:27:19.712Z,14.70
2019-05-05T13:33:29.434Z,14.60
2019-05-05T13:39:39.069Z,14.00
2019-05-05T13:45:40.391Z,13.60
2019-05-05T13:51:50.240Z,13.00
2019-05-05T13:57:47.304Z,13.80
2019-05-05T14:03:45.001Z,15.90
2019-05-05T14:09:44.030Z,16.80
2019-05-05T14:15:41.171Z,17.40
2019-05-05T14:21:38.819Z,17.50
2019-05-05T14:27:36.061Z,17.30
2019-05-05T14:33:10.925Z,18.10
2019-05-05T14:39:10.035Z,18.60
2019-05-05T14:45:06.968Z,18.00
2019-05-05T14:51:04.021Z,17.80
2019-05-05T14:57:00.961Z,16.90
2019-05-05T15:02:58.221Z,16.30
2019-05-05T15:09:03.923Z,17.00
2019-05-05T15:15:00.914Z,17.50
2019-05-05T15:20:46.072Z,17.30
2019-05-05T15:26:51.885Z,15.90
2019-05-05T15:32:43.686Z,15.20
2019-05-05T15:38:41.249Z,15.30
2019-05-05T15:44:38.630Z,14.90
2019-05-05T15:50:35.394Z,14.70
2019-05-05T15:56:34.056Z,14.90
2019-05-05T16:02:32.203Z,15.00
2019-05-05T16:08:28.888Z,14.60
2019-05-05T16:14:26.350Z,14.40
2019-05-05T16:17:06.525Z,14.30
2019-05-05T16:23:20.784Z,14.00
2019-05-05T16:29:30.714Z,13.70
2019-05-05T16:35:28.084Z,13.60
2019-05-05T16:41:29.699Z,13.40
2019-05-05T16:47:34.420Z,12.80
2019-05-05T16:53:43.050Z,12.50
2019-05-05T16:59:46.442Z,12.10
2019-05-05T17:05:50.058Z,11.70
2019-05-05T17:11:46.112Z,11.50
2019-05-05T17:17:36.721Z,11.20
2019-05-05T17:23:39.629Z,10.90
2019-05-05T17:29:49.047Z,10.90
2019-05-05T17:35:58.247Z,10.80
2019-05-05T17:42:27.391Z,10.70
2019-05-05T17:48:29.227Z,10.60
2019-05-05T17:51:15.876Z,10.60
2019-05-05T17:57:25.044Z,10.50
2019-05-05T18:03:46.195Z,10.40
2019-05-05T18:09:57.447Z,10.20
2019-05-05T18:15:56.324Z,10.10
2019-05-05T18:21:56.641Z,10.00
2019-05-05T18:28:15.764Z,9.70
2019-05-05T18:34:16.552Z,9.50
2019-05-05T18:40:04.055Z,9.40
2019-05-05T18:46:13.869Z,9.30
2019-05-05T18:52:24.521Z,9.20
2019-05-05T18:58:29.801Z,9.10
2019-05-05T19:04:21.620Z,9.00
2019-05-05T19:10:18.596Z,8.90
2019-05-05T19:16:16.121Z,8.80
2019-05-05T19:22:08.935Z,8.70
2019-05-05T19:28:06.546Z,8.60
2019-05-05T19:34:04.141Z,8.50
2019-05-05T19:40:01.737Z,8.30
2019-05-05T19:45:59.274Z,8.20
2019-05-05T19:51:56.786Z,8.20
2019-05-05T19:57:54.154Z,8.10
2019-05-05T20:03:51.549Z,7.90
2019-05-05T20:09:48.426Z,7.70
2019-05-05T20:15:47.705Z,7.70
2019-05-05T20:21:44.970Z,7.70
2019-05-05T20:27:31.394Z,7.50
2019-05-05T20:33:47.084Z,7.40
2019-05-05T20:39:44.181Z,7.30
2019-05-05T20:45:41.410Z,7.20
2019-05-05T20:51:38.957Z,7.20
2019-05-05T20:57:48.517Z,7.00
2019-05-05T21:03:57.849Z,7.00
2019-05-05T21:10:07.521Z,6.90
2019-05-05T21:16:17.266Z,6.80
2019-05-05T21:25:50.910Z,6.70
2019-05-05T21:31:49.333Z,6.60
2019-05-05T21:37:46.511Z,6.50
2019-05-05T21:43:19.716Z,6.50
2019-05-05T21:49:16.697Z,6.50
2019-05-05T21:55:15.703Z,6.40
2019-05-05T22:01:15.195Z,6.30
2019-05-05T22:07:11.952Z,6.30
2019-05-05T22:13:09.254Z,6.10
2019-05-05T22:19:07.660Z,6.10
2019-05-05T22:25:08.504Z,6.00
2019-05-05T22:30:41.071Z,6.00
2019-05-05T22:36:38.302Z,6.00
2019-05-05T22:42:35.387Z,5.90
2019-05-05T22:48:34.492Z,5.90
2019-05-05T22:54:33.488Z,5.90
2019-05-05T23:00:30.235Z,5.80
2019-05-05T23:06:28.493Z,5.80
2019-05-05T23:12:25.329Z,5.70
2019-05-05T23:18:25.718Z,5.60
2019-05-05T23:24:36.671Z,5.50
2019-05-05T23:30:10.131Z,5.50
2019-05-05T23:36:07.089Z,5.40
2019-05-05T23:42:04.829Z,5.30
2019-05-05T23:48:03.559Z,5.20
2019-05-05T23:54:01.046Z,5.10
2019-05-05T23:59:58.688Z,5.10
